Time;durP1;ratioP1;P1;durP2;ratioP2;P2;SDS_P1;SDS_P2;PMS_P1;PMS_P2;Temp;Humidity;BMP_temperature;BMP_pressure;BME280_temperature;BME280_humidity;BME280_pressure;Samples;Min_cycle;Max_cycle;Signal;HPM_P1;HPM_P2
2023/06/02 00:01:02;;;;;;;13.98;7.40;;;;;;;;;;5086437;28;20430;-76
2023/06/02 00:03:32;;;;;;;11.40;6.68;;;;;;;;;;5085199;28;20031;-77
2023/06/02 00:05:59;;;;;;;11.40;7.72;;;;;;;;;;5084027;28;20028;-76
2023/06/02 00:08:30;;;;;;;40.13;30.95;;;486.60;2227.20;;;;;;5087475;28;20052;-73
2023/06/02 00:10:56;;;;;;;29.63;19.30;;;461.70;2380.80;;;;;;5067814;28;20481;-73
2023/06/02 00:13:22;;;;;;;18.00;11.13;;;461.70;2380.80;;;;;;5086675;28;20051;-73
2023/06/02 00:15:48;;;;;;;17.05;9.10;;;461.70;2380.80;;;;;;5093118;28;20028;-74
2023/06/02 00:18:14;;;;;;;14.88;9.02;;;461.60;2380.80;;;;;;5083079;28;20021;-75
2023/06/02 00:20:41;;;;;;;14.02;8.82;;;461.60;2380.80;;;;;;5096885;28;20028;-75
2023/06/02 00:23:08;;;;;;;16.00;8.85;;;461.50;2380.80;;;;;;5086821;28;20078;-72
2023/06/02 00:25:34;;;;;;;15.38;8.45;;;;;;;;;;5076300;28;20025;-72
2023/06/02 00:28:00;;;;;;;16.30;8.18;;;;;;;;;;5060939;28;20106;-75
2023/06/02 00:30:27;;;;;;;13.32;8.35;;;;;;;;;;5095493;28;20020;-71
2023/06/02 00:32:53;;;;;;;14.85;8.52;;;;;;;;;;5094370;28;20031;-75
2023/06/02 00:35:19;;;;;;;15.82;10.68;;;;;;;;;;5092564;28;20049;-72
2023/06/02 00:37:46;;;;;;;14.93;10.80;;;;;;;;;;5086317;28;20020;-71
2023/06/02 00:40:12;;;;;;;13.55;8.60;;;;;;;;;;5075267;28;20024;-72
2023/06/02 00:42:38;;;;;;;15.23;8.52;;;;;;;;;;5083571;28;20021;-72
2023/06/02 00:45:05;;;;;;;12.07;7.97;;;;;;;;;;5092457;28;20043;-73
2023/06/02 00:47:31;;;;;;;12.88;7.70;;;;;;;;;;5091404;28;20084;-71
2023/06/02 00:49:58;;;;;;;12.73;8.38;;;;;;;;;;5070646;28;20438;-71
2023/06/02 00:52:25;;;;;;;13.05;8.15;;;;;;;;;;5085087;28;20020;-71
2023/06/02 00:54:51;;;;;;;11.52;8.02;;;;;;;;;;5092197;28;20032;-73
2023/06/02 00:57:17;;;;;;;13.32;8.55;;;;;;;;;;5086061;28;20028;-72
2023/06/02 00:59:46;;;;;;;11.73;8.20;;;;;;;;;;5088692;28;20020;-72
2023/06/02 01:02:13;;;;;;;12.23;8.05;;;;;;;;;;5085494;28;20466;-73
2023/06/02 01:04:40;;;;;;;15.80;9.18;;;;;;;;;;5095218;28;20024;-73
2023/06/02 01:07:07;;;;;;;13.85;9.18;;;;;;;;;;5095348;28;20024;-72
2023/06/02 01:09:34;;;;;;;16.17;9.13;;;461.30;2380.80;;;;;;5094818;28;20520;-72
2023/06/02 01:12:00;;;;;;;12.98;9.40;;;461.10;2380.80;;;;;;5095200;28;20412;-72
2023/06/02 01:14:26;;;;;;;12.93;9.63;;;461.10;2380.80;;;;;;5093422;28;20047;-72
2023/06/02 01:16:52;;;;;;;13.48;9.10;;;461.10;2380.80;;;;;;5094392;28;20024;-72
2023/06/02 01:19:21;;;;;;;13.02;9.50;;;461.00;2380.80;;;;;;5088596;28;20490;-72
2023/06/02 01:21:57;;;;;;;12.98;9.30;;;461.10;2380.80;;;;;;5093349;28;20474;-72
2023/06/02 01:24:36;;;;;;;11.88;8.60;;;461.10;2380.80;;;;;;5088975;28;20052;-72
2023/06/02 01:27:08;;;;;;;15.00;8.65;;;461.20;2380.80;;;;;;5087171;28;20028;-73
2023/06/02 01:29:35;;;;;;;14.00;8.88;;;461.30;2380.80;;;;;;5101780;28;20096;-72
2023/06/02 01:32:25;;;;;;;13.00;8.52;;;461.20;2380.80;;;;;;5084098;28;20032;-73
2023/06/02 01:34:56;;;;;;;14.10;8.60;;;460.90;2380.80;;;;;;5099726;28;20023;-72
2023/06/02 01:37:24;;;;;;;12.40;8.65;;;460.90;2380.80;;;;;;5094918;28;20034;-76
2023/06/02 01:39:52;;;;;;;11.73;7.97;;;460.90;2380.80;;;;;;5110027;28;20425;-73
2023/06/02 01:42:20;;;;;;;16.17;8.90;;;461.10;2380.80;;;;;;5111540;28;20084;-73
2023/06/02 01:44:46;;;;;;;12.77;8.82;;;461.10;2380.80;;;;;;5106573;28;20035;-76
2023/06/02 01:47:12;;;;;;;13.52;8.60;;;461.00;2380.80;;;;;;5110634;28;20512;-76
2023/06/02 01:49:38;;;;;;;13.85;9.20;;;461.00;2380.80;;;;;;5107540;28;20085;-77
2023/06/02 01:52:04;;;;;;;13.32;8.82;;;461.10;2380.80;;;;;;5109384;28;20376;-71
2023/06/02 01:54:31;;;;;;;13.32;8.80;;;461.00;2380.80;;;;;;5092286;28;20024;-76
2023/06/02 01:56:57;;;;;;;12.38;8.82;;;461.00;2380.80;;;;;;5100576;28;20286;-76
2023/06/02 01:59:22;;;;;;;14.63;7.60;;;461.00;2380.80;;;;;;5101748;28;20027;-76
2023/06/02 02:01:48;;;;;;;16.75;8.68;;;461.00;2124.80;;;;;;5100865;28;20369;-75
2023/06/02 02:04:14;;;;;;;13.80;8.10;;;461.00;2380.80;;;;;;5095330;28;20106;-75
2023/06/02 02:06:42;;;;;;;14.40;8.30;;;461.10;2380.80;;;;;;5098568;28;20016;-75
2023/06/02 02:09:07;;;;;;;12.52;8.38;;;461.00;2380.80;;;;;;5088426;28;20032;-76
2023/06/02 02:11:33;;;;;;;12.07;8.07;;;461.00;2380.80;;;;;;5097110;28;20029;-75
2023/06/02 02:14:00;;;;;;;16.50;8.73;;;460.90;2380.80;;;;;;5072630;28;20038;-75
2023/06/02 02:16:26;;;;;;;15.05;8.40;;;460.90;2380.80;;;;;;5107911;28;20030;-76
2023/06/02 02:18:56;;;;;;;14.32;8.13;;;460.90;2380.80;;;;;;5105124;28;20020;-74
2023/06/02 02:21:22;;;;;;;13.52;8.57;;;460.90;2380.80;;;;;;5105116;28;20107;-76
2023/06/02 02:23:47;;;;;;;12.38;8.27;;;460.90;2380.80;;;;;;5101984;28;20027;-72
2023/06/02 02:26:13;;;;;;;17.08;8.38;;;460.90;2380.80;;;;;;5109743;28;20039;-74
2023/06/02 02:28:39;;;;;;;13.95;8.52;;;461.00;2380.80;;;;;;5100552;28;20035;-77
2023/06/02 02:31:04;;;;;;;14.02;8.98;;;460.80;2380.80;;;;;;5108392;28;20112;-73
2023/06/02 02:33:31;;;;;;;11.98;8.10;;;460.80;2380.80;;;;;;5110194;28;20149;-76
2023/06/02 02:35:56;;;;;;;12.75;7.90;;;460.80;2380.80;;;;;;5106298;28;20032;-75
2023/06/02 02:38:22;;;;;;;12.50;7.82;;;460.80;2380.80;;;;;;5109323;28;20024;-76
2023/06/02 02:40:48;;;;;;;15.25;8.32;;;460.80;2380.80;;;;;;5102003;28;20028;-76
2023/06/02 02:43:15;;;;;;;13.30;8.48;;;460.80;2380.80;;;;;;5110115;28;20024;-76
2023/06/02 02:45:41;;;;;;;13.77;8.82;;;460.80;2380.80;;;;;;5102589;28;20028;-76
2023/06/02 02:48:07;;;;;;;14.70;8.52;;;436.10;2355.20;;;;;;5106818;28;20482;-76
2023/06/02 02:50:33;;;;;;;14.10;8.90;;;436.10;2355.20;;;;;;5106287;28;20397;-72
2023/06/02 02:52:59;;;;;;;10.63;8.02;;;436.10;2355.20;;;;;;5109072;28;20028;-76
2023/06/02 02:55:25;;;;;;;11.48;8.30;;;436.10;2355.20;;;;;;5106897;28;20054;-74
2023/06/02 02:57:51;;;;;;;13.27;8.00;;;436.10;2355.20;;;;;;5096114;28;20089;-76
2023/06/02 03:00:17;;;;;;;13.52;9.18;;;436.10;2355.20;;;;;;5100158;28;20535;-76
2023/06/02 03:02:43;;;;;;;10.82;8.77;;;436.10;2355.20;;;;;;5105602;28;20046;-75
2023/06/02 03:05:10;;;;;;;14.52;9.30;;;436.10;2355.20;;;;;;5106957;28;20024;-76
2023/06/02 03:07:39;;;;;;;15.98;10.00;;;436.00;2355.20;;;;;;5108472;28;20027;-78
2023/06/02 03:10:06;;;;;;;16.70;12.13;;;460.80;2380.80;;;;;;5103099;28;20028;-76
2023/06/02 03:12:32;;;;;;;16.17;11.02;;;436.00;2355.20;;;;;;5103303;28;20085;-75
2023/06/02 03:14:58;;;;;;;15.00;11.65;;;436.00;2355.20;;;;;;5089216;28;20036;-73
2023/06/02 03:17:24;;;;;;;17.15;11.48;;;436.00;2355.20;;;;;;5099411;28;20020;-75
2023/06/02 03:19:50;;;;;;;13.30;10.43;;;436.00;2355.20;;;;;;5099811;28;20038;-72
2023/06/02 03:22:16;;;;;;;16.27;10.65;;;436.10;2355.20;;;;;;5091817;28;20047;-76
2023/06/02 03:24:41;;;;;;;13.95;9.18;;;436.10;2355.20;;;;;;5094380;28;20028;-71
2023/06/02 03:27:13;;;;;;;13.32;8.43;;;460.80;2380.80;;;;;;5096026;28;20032;-75
2023/06/02 03:29:42;;;;;;;11.77;8.40;;;460.80;2380.80;;;;;;5096680;28;20056;-77
2023/06/02 03:32:10;;;;;;;10.75;8.25;;;460.90;2380.80;;;;;;5088086;28;20024;-75
2023/06/02 03:34:36;;;;;;;10.75;8.57;;;;;;;;;;5092618;28;20024;-75
2023/06/02 03:37:02;;;;;;;14.25;8.75;;;461.20;2380.80;;;;;;5097622;28;20028;-76
2023/06/02 03:39:28;;;;;;;12.82;9.43;;;461.00;2380.80;;;;;;5083063;28;20382;-76
2023/06/02 03:41:54;;;;;;;13.35;9.20;;;461.00;2380.80;;;;;;5074996;28;20028;-72
2023/06/02 03:44:20;;;;;;;13.23;8.88;;;461.10;2380.80;;;;;;5097333;28;20130;-72
2023/06/02 03:46:46;;;;;;;13.38;8.88;;;461.10;2380.80;;;;;;5097153;28;20024;-72
2023/06/02 03:49:11;;;;;;;13.60;8.80;;;461.20;2380.80;;;;;;5081498;28;20474;-72
2023/06/02 03:51:37;;;;;;;13.05;8.80;;;461.20;2380.80;;;;;;5096385;28;20024;-72
2023/06/02 03:54:03;;;;;;;14.40;8.57;;;461.30;2380.80;;;;;;5090269;28;20462;-73
2023/06/02 03:56:28;;;;;;;15.68;9.85;;;461.00;2380.80;;;;;;5096314;28;20039;-72
2023/06/02 03:58:54;;;;;;;15.52;11.18;;;436.10;2355.20;;;;;;5095679;28;20088;-74
2023/06/02 04:01:21;;;;;;;20.38;11.38;;;435.80;2355.20;;;;;;5094198;28;20473;-72
2023/06/02 04:03:47;;;;;;;19.17;11.18;;;435.80;2355.20;;;;;;5097137;28;20386;-72
2023/06/02 04:06:13;;;;;;;24.42;14.52;;;436.10;2355.20;;;;;;5087149;28;20020;-74
2023/06/02 04:08:39;;;;;;;30.48;15.20;;;435.80;2355.20;;;;;;5078705;28;20070;-73
2023/06/02 04:11:05;;;;;;;20.48;12.80;;;435.50;2355.20;;;;;;5078459;28;20031;-72
2023/06/02 04:13:31;;;;;;;22.20;15.07;;;435.70;2355.20;;;;;;5075521;28;20406;-72
2023/06/02 04:15:57;;;;;;;25.67;17.00;;;435.90;2355.20;;;;;;5077767;28;20458;-73
2023/06/02 04:18:22;;;;;;;26.13;17.05;;;435.80;2355.20;;;;;;5076179;28;20074;-73
2023/06/02 04:20:48;;;;;;;25.35;16.20;;;435.70;2355.20;;;;;;5079150;28;20012;-72
2023/06/02 04:23:14;;;;;;;28.90;17.50;;;435.90;2355.20;;;;;;5088760;28;20067;-72
2023/06/02 04:25:40;;;;;;;25.05;16.55;;;435.80;2355.20;;;;;;5085835;28;20401;-72
2023/06/02 04:28:07;;;;;;;23.50;15.77;;;436.00;2355.20;;;;;;5079183;28;20037;-74
2023/06/02 04:30:36;;;;;;;24.45;17.50;;;460.90;2380.80;;;;;;5093531;28;20089;-74
2023/06/02 04:33:03;;;;;;;24.38;16.27;;;461.00;2380.80;;;;;;5097301;28;20024;-74
2023/06/02 04:35:28;;;;;;;24.63;17.33;;;461.30;2380.80;;;;;;5099188;28;20047;-73
2023/06/02 04:37:55;;;;;;;25.85;17.05;;;461.10;2380.80;;;;;;5102728;28;20462;-74
2023/06/02 04:40:21;;;;;;;22.95;16.65;;;;;;;;;;5100017;28;20029;-77
2023/06/02 04:42:46;;;;;;;24.23;17.70;;;461.70;2380.80;;;;;;5095402;28;20111;-73
2023/06/02 04:45:12;;;;;;;23.08;17.25;;;461.50;2380.80;;;;;;5088484;28;20064;-72
2023/06/02 04:47:40;;;;;;;24.25;17.58;;;461.50;2380.80;;;;;;5064488;28;20040;-73
2023/06/02 04:50:08;;;;;;;25.50;18.13;;;461.60;2380.80;;;;;;5083169;28;20036;-77
2023/06/02 04:52:44;;;;;;;25.38;19.50;;;461.70;2380.80;;;;;;5087403;28;20031;-76
2023/06/02 04:55:11;;;;;;;27.73;18.83;;;461.70;2380.80;;;;;;5085438;28;20028;-77
2023/06/02 04:57:37;;;;;;;31.13;19.05;;;461.60;2380.80;;;;;;5091108;28;20047;-76
2023/06/02 05:00:04;;;;;;;26.60;19.83;;;461.70;2380.80;;;;;;5091425;28;20028;-76
2023/06/02 05:02:31;;;;;;;30.63;20.42;;;461.70;2380.80;;;;;;5098600;28;20047;-77
2023/06/02 05:04:57;;;;;;;29.05;20.40;;;461.70;2380.80;;;;;;5102195;28;20131;-76
2023/06/02 05:07:41;;;;;;;25.02;19.65;;;461.70;2380.80;;;;;;5108361;28;20025;-76
2023/06/02 05:10:07;;;;;;;24.52;19.90;;;486.50;2380.80;;;;;;5094493;28;20041;-77
2023/06/02 05:12:32;;;;;;;27.10;18.50;;;486.70;2380.80;;;;;;5097753;28;20024;-76
2023/06/02 05:14:58;;;;;;;25.95;18.42;;;486.90;2380.80;;;;;;5094087;28;20036;-77
2023/06/02 05:17:28;;;;;;;20.95;17.52;;;487.10;2380.80;;;;;;5089056;28;20029;-76
2023/06/02 05:19:54;;;;;;;22.10;16.60;;;487.20;2380.80;;;;;;5095982;28;20038;-72
2023/06/02 05:22:20;;;;;;;20.35;16.27;;;;;;;;;;5104219;28;20052;-77
2023/06/02 05:24:46;;;;;;;18.27;15.88;;;512.10;2380.80;;;;;;5099726;28;20037;-74
2023/06/02 05:27:12;;;;;;;19.95;15.23;;;;;;;;;;5091283;28;20024;-73
2023/06/02 05:29:38;;;;;;;19.60;15.55;;;;;;;;;;5093212;28;20430;-73
2023/06/02 05:32:06;;;;;;;17.88;14.32;;;;;;;;;;5074993;28;20028;-74
2023/06/02 05:34:32;;;;;;;19.27;13.38;;;;;;;;;;5092144;28;20100;-74
2023/06/02 05:36:59;;;;;;;17.35;13.93;;;512.90;2380.80;;;;;;5084742;28;20016;-73
2023/06/02 05:39:25;;;;;;;19.25;13.50;;;512.90;2380.80;;;;;;5093161;28;20085;-73
2023/06/02 05:41:50;;;;;;;16.83;12.88;;;537.60;2406.40;;;;;;5093435;28;20016;-72
2023/06/02 05:44:16;;;;;;;18.58;12.95;;;537.70;2406.40;;;;;;5065545;28;20040;-72
2023/06/02 05:46:42;;;;;;;15.73;13.07;;;537.70;2406.40;;;;;;5092112;28;20450;-73
2023/06/02 05:49:08;;;;;;;16.67;11.00;;;;;;;;;;5099864;28;20120;-74
2023/06/02 05:51:34;;;;;;;15.38;12.07;;;;;;;;;;5098851;28;20028;-73
2023/06/02 05:54:16;;;;;;;19.60;12.05;;;;;;;;;;5108439;28;20031;-77
2023/06/02 05:56:42;;;;;;;14.35;10.70;;;;;;;;;;5109244;28;20024;-77
2023/06/02 05:59:08;;;;;;;11.93;9.52;;;;;;;;;;5102461;28;20028;-79
2023/06/02 06:01:35;;;;;;;15.18;10.80;;;;;;;;;;5106129;28;20032;-76
2023/06/02 06:04:01;;;;;;;15.45;11.30;;;;;;;;;;5104255;28;20040;-78
2023/06/02 06:06:28;;;;;;;12.52;10.35;;;;;;;;;;5096902;28;20036;-77
2023/06/02 06:08:54;;;;;;;11.88;9.93;;;;;;;;;;5094914;28;20043;-76
2023/06/02 06:11:21;;;;;;;14.52;9.80;;;;;;;;;;5103145;28;20028;-78
2023/06/02 06:13:48;;;;;;;12.57;9.60;;;;;;;;;;5100093;28;20759;-79
2023/06/02 06:16:14;;;;;;;12.18;8.95;;;588.80;2432.00;;;;;;5093048;28;20029;-79
2023/06/02 06:18:39;;;;;;;13.40;10.18;;;564.10;2432.00;;;;;;5080997;28;20386;-78
2023/06/02 06:21:05;;;;;;;11.68;9.18;;;;;;;;;;5090816;28;20028;-78
2023/06/02 06:23:31;;;;;;;11.57;8.60;;;;;;;;;;5079108;28;20017;-78
2023/06/02 06:25:58;;;;;;;10.52;8.70;;;;;;;;;;5085410;28;20028;-79
2023/06/02 06:28:24;;;;;;;12.05;8.50;;;;;;;;;;5083029;28;20119;-79
2023/06/02 06:30:50;;;;;;;11.10;7.90;;;;;;;;;;5078956;28;20032;-76
2023/06/02 06:33:16;;;;;;;11.05;8.90;;;;;;;;;;5076771;28;20017;-78
2023/06/02 06:35:42;;;;;;;10.10;8.13;;;;;;;;;;5077682;28;20039;-78
2023/06/02 06:38:08;;;;;;;11.57;8.40;;;;;;;;;;5085778;28;20020;-78
2023/06/02 06:40:34;;;;;;;11.88;8.45;;;;;;;;;;5087356;28;20027;-78
2023/06/02 06:43:01;;;;;;;10.85;7.93;;;614.90;2432.00;;;;;;5077468;28;20028;-79
2023/06/02 06:45:27;;;;;;;10.35;7.50;;;;;;;;;;5094645;28;20474;-79
2023/06/02 06:47:53;;;;;;;9.15;7.93;;;614.90;2432.00;;;;;;5094341;28;20032;-79
2023/06/02 06:50:19;;;;;;;9.75;7.63;;;;;;;;;;5101959;28;20036;-76
2023/06/02 06:52:50;;;;;;;11.18;8.00;;;;;;;;;;5103843;28;20023;-77
2023/06/02 06:55:16;;;;;;;12.10;7.68;;;;;;;;;;5095381;28;20059;-75
2023/06/02 06:57:42;;;;;;;9.35;8.10;;;;;;;;;;5103675;28;20032;-77
2023/06/02 07:00:08;;;;;;;10.55;8.50;;;;;;;;;;5090055;28;20402;-77
2023/06/02 07:02:34;;;;;;;11.50;8.50;;;;;;;;;;5099030;28;20470;-78
2023/06/02 07:05:00;;;;;;;10.90;8.23;;;;;;;;;;5081294;28;20032;-77
2023/06/02 07:07:26;;;;;;;10.35;8.80;;;;;;;;;;5101230;28;20084;-77
2023/06/02 07:09:53;;;;;;;13.15;9.75;;;640.20;2432.00;;;;;;5100200;28;20040;-77
2023/06/02 07:12:19;;;;;;;11.32;9.82;;;640.10;2432.00;;;;;;5090519;28;20016;-74
2023/06/02 07:14:44;;;;;;;12.23;9.45;;;615.30;2432.00;;;;;;5083387;28;20052;-77
2023/06/02 07:17:10;;;;;;;11.23;8.23;;;640.20;2432.00;;;;;;5085438;28;20024;-78
2023/06/02 07:19:36;;;;;;;9.18;8.20;;;640.90;2432.00;;;;;;5079302;28;20024;-78
2023/06/02 07:22:40;;;;;;;10.32;7.72;;;640.70;2432.00;;;;;;5083030;28;20518;-77
2023/06/02 07:25:08;;;;;;;9.30;7.25;;;640.50;2432.00;;;;;;5088624;28;20045;-77
2023/06/02 07:27:34;;;;;;;8.80;7.10;;;665.60;2432.00;;;;;;5088026;28;20537;-78
2023/06/02 07:30:00;;;;;;;9.23;6.70;;;665.80;2432.00;;;;;;5083385;28;20078;-77
2023/06/02 07:32:26;;;;;;;8.68;7.07;;;665.80;2432.00;;;;;;5101436;28;20046;-77
2023/06/02 07:34:51;;;;;;;9.23;6.50;;;666.10;2432.00;;;;;;5092425;28;20040;-78
2023/06/02 07:37:17;;;;;;;9.13;5.35;;;666.50;2432.00;;;;;;5093183;28;20009;-76
2023/06/02 07:39:43;;;;;;;7.82;5.55;;;691.30;2432.00;;;;;;5097365;28;20061;-78
2023/06/02 07:42:09;;;;;;;7.72;6.25;;;;;;;;;;5092349;28;20030;-77
2023/06/02 07:44:35;;;;;;;6.63;5.60;;;;;;;;;;5094667;28;20423;-78
2023/06/02 07:47:01;;;;;;;7.85;6.50;;;691.20;2329.60;;;;;;5091586;28;20016;-78
2023/06/02 07:49:26;;;;;;;7.82;5.95;;;691.40;2432.00;;;;;;5094117;28;20037;-77
2023/06/02 07:51:52;;;;;;;7.10;6.00;;;691.90;2355.20;;;;;;5099545;28;20074;-77
2023/06/02 07:54:18;;;;;;;7.72;5.43;;;;;;;;;;5102288;28;20046;-76
2023/06/02 07:56:44;;;;;;;9.75;6.05;;;;;;;;;;5084021;28;20024;-77
2023/06/02 07:59:12;;;;;;;7.50;6.00;;;;;;;;;;5093012;28;20035;-77
2023/06/02 08:01:38;;;;;;;7.18;5.85;;;;;;;;;;5100893;28;20070;-76
2023/06/02 08:04:04;;;;;;;7.15;5.68;;;;;;;;;;5095895;28;20013;-77
2023/06/02 08:06:31;;;;;;;6.45;5.70;;;;;;;;;;5119318;28;20008;-76
2023/06/02 08:08:57;;;;;;;7.10;6.40;;;742.40;2099.20;;;;;;5110613;28;20027;-77
2023/06/02 08:11:23;;;;;;;7.65;6.60;;;717.60;2073.60;;;;;;5111432;28;20049;-77
2023/06/02 08:13:49;;;;;;;9.68;6.30;;;742.50;2124.80;;;;;;5111355;28;20044;-74
2023/06/02 08:16:15;;;;;;;6.60;5.97;;;;;;;;;;5097411;28;20028;-76
2023/06/02 08:18:41;;;;;;;8.40;7.68;;;;;;;;;;5081858;28;20008;-78
2023/06/02 08:21:07;;;;;;;8.25;7.53;;;;;;;;;;5133492;28;20385;-76
2023/06/02 08:23:34;;;;;;;10.38;7.50;;;;;;;;;;5114280;28;20032;-78
2023/06/02 08:26:00;;;;;;;9.07;8.18;;;;;;;;;;5114112;28;20067;-79
2023/06/02 08:28:27;;;;;;;7.72;6.50;;;;;;;;;;5098499;28;20158;-78
2023/06/02 08:30:58;;;;;;;8.73;7.93;;;;;;;;;;5112655;28;20040;-79
2023/06/02 08:33:24;;;;;;;8.40;6.65;;;;;;;;;;5107834;28;20024;-78
2023/06/02 08:35:51;;;;;;;8.05;7.25;;;;;;;;;;5090541;28;20024;-78
2023/06/02 08:38:19;;;;;;;11.48;10.27;;;;;;;;;;5075592;28;20035;-77
2023/06/02 08:40:46;;;;;;;8.05;6.50;;;;;;;;;;5090298;28;20051;-77
2023/06/02 08:43:15;;;;;;;8.50;7.68;;;;;;;;;;5094926;28;20024;-79
2023/06/02 08:45:46;;;;;;;8.85;8.05;;;;;;;;;;5097158;28;20026;-78
2023/06/02 08:48:16;;;;;;;9.45;8.38;;;;;;;;;;5094575;28;20481;-78
2023/06/02 08:50:47;;;;;;;10.05;9.05;;;;;;;;;;5093669;28;20032;-76
2023/06/02 08:53:18;;;;;;;11.13;10.13;;;;;;;;;;5072353;28;20490;-77
2023/06/02 08:55:48;;;;;;;9.35;8.38;;;;;;;;;;5070229;28;20021;-77
2023/06/02 08:58:14;;;;;;;9.50;8.55;;;;;;;;;;5083333;28;20028;-78
2023/06/02 09:00:41;;;;;;;9.38;8.48;;;;;;;;;;5091579;28;20024;-78
2023/06/02 09:03:07;;;;;;;10.73;9.68;;;;;;;;;;5092347;28;20450;-78
2023/06/02 09:05:33;;;;;;;12.95;11.85;;;717.60;1996.80;;;;;;5093632;28;20032;-78
2023/06/02 09:08:12;;;;;;;10.43;9.43;;;;;;;;;;5094932;28;20072;-78
2023/06/02 09:10:42;;;;;;;11.75;10.60;;;;;;;;;;5069533;28;20048;-78
2023/06/02 09:13:28;;;;;;;11.90;11.00;;;;;;;;;;5087035;28;20060;-78
2023/06/02 09:15:59;;;;;;;11.50;10.50;;;742.40;1920.00;;;;;;5091132;28;20084;-78
2023/06/02 09:18:25;;;;;;;12.98;11.85;;;717.70;1894.40;;;;;;5094517;28;20028;-79
2023/06/02 09:20:52;;;;;;;11.48;10.48;;;;;;;;;;5091501;28;20458;-78
2023/06/02 09:23:18;;;;;;;11.50;10.30;;;742.70;1945.60;;;;;;5093663;28;20530;-79
2023/06/02 09:25:45;;;;;;;12.07;11.10;;;;;;;;;;5093768;28;20437;-78
2023/06/02 09:28:12;;;;;;;17.63;16.05;;;;;;;;;;5087209;28;20036;-77
2023/06/02 09:30:38;;;;;;;13.82;12.63;;;768.30;1740.80;;;;;;5093110;28;20108;-78
2023/06/02 09:33:12;;;;;;;13.20;12.15;;;768.00;1792.00;;;;;;5081366;28;20482;-78
2023/06/02 09:35:40;;;;;;;15.82;14.48;;;768.80;1843.20;;;;;;5095755;28;20030;-79
2023/06/02 09:38:09;;;;;;;23.73;22.00;;;;;;;;;;5095498;28;20027;-77
2023/06/02 09:40:36;;;;;;;14.63;13.52;;;768.30;1715.20;;;;;;5078446;28;20024;-78
2023/06/02 09:43:07;;;;;;;17.75;16.55;;;768.50;1792.00;;;;;;5069563;28;20764;-78
2023/06/02 09:45:33;;;;;;;14.93;13.75;;;;;;;;;;5081793;28;20930;-79
2023/06/02 09:48:00;;;;;;;17.23;15.85;;;;;;;;;;5086041;28;20162;-78
2023/06/02 09:50:32;;;;;;;17.35;16.10;;;;;;;;;;5087939;28;20047;-78
2023/06/02 09:53:06;;;;;;;24.77;23.05;;;793.90;1740.80;;;;;;5085294;28;20031;-79
2023/06/02 09:55:33;;;;;;;14.55;13.45;;;768.50;1689.60;;;;;;5088621;28;20032;-76
2023/06/02 09:58:00;;;;;;;17.45;16.05;;;768.50;1766.40;;;;;;5103942;28;20024;-78
2023/06/02 10:00:26;;;;;;;30.33;28.25;;;768.30;1715.20;;;;;;5098863;28;20039;-76
2023/06/02 10:02:52;;;;;;;22.48;20.92;;;743.10;1740.80;;;;;;5105477;28;20087;-75
2023/06/02 10:05:20;;;;;;;34.13;31.85;;;742.80;1792.00;;;;;;5106799;28;20031;-78
2023/06/02 10:07:55;;;;;;;18.67;17.33;;;742.90;1715.20;;;;;;5105081;28;20047;-79
2023/06/02 10:10:44;;;;;;;19.95;18.55;;;768.00;1740.80;;;;;;5099389;28;20458;-79
2023/06/02 10:13:43;;;;;;;30.33;28.25;;;768.50;1715.20;;;;;;5090022;28;20653;-78
2023/06/02 10:16:27;;;;;;;23.77;22.15;;;768.70;1689.60;;;;;;5069680;28;20020;-77
2023/06/02 10:19:05;;;;;;;36.40;33.75;;;768.60;1689.60;;;;;;5088758;28;20462;-77
2023/06/02 10:22:08;;;;;;;13.57;12.27;;;768.80;1843.20;;;;;;5099501;28;20032;-75
2023/06/02 10:24:44;;;;;;;;;;;793.70;1843.20;;;;;;5100389;28;20407;-77
2023/06/02 10:27:10;;;;;;;19.85;18.35;;;768.20;1817.60;;;;;;5088576;28;19908;-75
2023/06/02 10:29:37;;;;;;;13.57;12.35;;;743.10;1920.00;;;;;;5093662;28;20138;-76
2023/06/02 10:32:22;;;;;;;28.15;26.20;;;742.80;1971.20;;;;;;5094110;28;20054;-78
2023/06/02 10:34:52;;;;;;;18.83;17.35;;;742.60;2022.40;;;;;;5080048;28;20041;-75
2023/06/02 10:37:19;;;;;;;11.18;10.18;;;;;;;;;;5074149;28;20039;-75
2023/06/02 10:39:45;;;;;;;11.88;10.65;;;;;;;;;;5088638;28;20059;-77
2023/06/02 10:42:13;;;;;;;13.50;10.85;;;717.70;1996.80;;;;;;5074872;28;20028;-78
2023/06/02 10:44:38;;;;;;;16.50;15.07;;;717.40;2048.00;;;;;;5063042;28;20515;-77
2023/06/02 10:47:19;;;;;;;14.27;13.00;;;717.50;2022.40;;;;;;5091191;28;20102;-77
2023/06/02 10:49:54;;;;;;;12.13;11.13;;;717.50;2022.40;;;;;;5091197;28;20036;-77
2023/06/02 10:52:21;;;;;;;10.25;9.45;;;742.80;1971.20;;;;;;5085869;28;20431;-76
2023/06/02 10:55:08;;;;;;;12.98;11.77;;;743.20;1996.80;;;;;;5096966;28;20035;-77
2023/06/02 10:57:53;;;;;;;20.25;18.75;;;768.00;1945.60;;;;;;5090708;28;20111;-78
2023/06/02 11:00:43;;;;;;;15.43;14.23;;;743.00;1971.20;;;;;;5089927;28;20074;-73
2023/06/02 11:03:15;;;;;;;14.25;13.13;;;742.50;1971.20;;;;;;5072430;28;20052;-75
2023/06/02 11:05:41;;;;;;;13.88;12.48;;;742.40;1971.20;;;;;;5075524;28;20043;-76
2023/06/02 11:08:17;;;;;;;12.98;11.98;;;743.00;1971.20;;;;;;5087790;28;20035;-76
2023/06/02 11:10:56;;;;;;;18.40;16.90;;;768.30;1945.60;;;;;;5072955;28;20052;-77
2023/06/02 11:13:26;;;;;;;15.38;14.18;;;768.50;1868.80;;;;;;5085021;28;20037;-76
2023/06/02 11:15:56;;;;;;;20.88;19.23;;;768.30;1920.00;;;;;;5071824;28;20032;-78
2023/06/02 11:18:22;;;;;;;23.20;21.60;;;743.20;1843.20;;;;;;5093748;28;20024;-76
2023/06/02 11:20:55;;;;;;;20.70;19.13;;;742.80;1868.80;;;;;;5063233;28;20029;-79
2023/06/02 11:23:21;;;;;;;19.15;17.70;;;742.70;1843.20;;;;;;5097087;28;20024;-76
2023/06/02 11:25:49;;;;;;;14.50;13.40;;;742.50;1868.80;;;;;;5101942;28;20473;-77
2023/06/02 11:28:21;;;;;;;23.35;21.65;;;743.00;1868.80;;;;;;5084042;28;20059;-76
2023/06/02 11:31:03;;;;;;;14.00;12.68;;;;;;;;;;5075094;28;20111;-75
2023/06/02 11:33:33;;;;;;;29.92;27.58;;;;;;;;;;5080542;28;20036;-73
2023/06/02 11:36:02;;;;;;;30.20;28.25;;;;;;;;;;5092905;28;20028;-77
2023/06/02 11:38:32;;;;;;;34.42;32.03;;;;;;;;;;5086704;28;20025;-75
2023/06/02 11:41:14;;;;;;;22.92;21.42;;;;;;;;;;5086295;28;20034;-73
2023/06/02 11:43:40;;;;;;;25.80;23.85;;;;;;;;;;5071575;28;20024;-76
2023/06/02 11:46:10;;;;;;;17.00;15.77;;;;;;;;;;5083751;28;20054;-75
2023/06/02 11:48:40;;;;;;;25.45;23.70;;;;;;;;;;5087676;28;20020;-74
2023/06/02 11:51:08;;;;;;;24.77;22.98;;;768.30;1766.40;;;;;;5095002;28;20024;-75
2023/06/02 11:53:35;;;;;;;19.08;17.60;;;768.70;1766.40;;;;;;5084050;28;20470;-74
2023/06/02 11:56:01;;;;;;;23.02;21.48;;;793.70;1792.00;;;;;;5073639;28;20107;-73
2023/06/02 11:58:29;;;;;;;26.98;24.95;;;;;;;;;;5088778;28;20019;-73
2023/06/02 12:01:08;;;;;;;26.50;24.70;;;768.50;1715.20;;;;;;5085213;28;20048;-75
2023/06/02 12:03:34;;;;;;;28.02;26.10;;;768.40;1715.20;;;;;;5085415;28;20040;-74
2023/06/02 12:06:11;;;;;;;26.05;24.25;;;768.30;1740.80;;;;;;5088512;28;20035;-73
2023/06/02 12:08:37;;;;;;;29.30;27.40;;;;;;;;;;5075874;28;20020;-75
2023/06/02 12:11:03;;;;;;;41.17;38.38;;;;;;;;;;5091725;28;20063;-72
2023/06/02 12:13:30;;;;;;;47.40;44.22;;;;;;;;;;5091109;28;20857;-72
2023/06/02 12:15:58;;;;;;;39.30;36.33;;;;;;;;;;5086448;28;20500;-73
2023/06/02 12:18:32;;;;;;;40.40;37.83;;;;;;;;;;5091140;28;20020;-75
2023/06/02 12:20:59;;;;;;;27.00;25.17;;;768.80;1689.60;;;;;;5066271;28;20444;-75
2023/06/02 12:23:58;;;;;;;37.70;35.15;;;768.20;1766.40;;;;;;5088338;28;20039;-72
2023/06/02 12:26:24;;;;;;;48.70;45.42;;;742.50;1817.60;;;;;;5006068;28;20034;-78
2023/06/02 12:28:51;;;;;;;24.05;22.08;;;717.00;1817.60;;;;;;5012331;28;20049;-78
2023/06/02 12:31:18;;;;;;;22.23;20.27;;;;;;;;;;5013452;28;20463;-77
2023/06/02 12:33:44;;;;;;;14.43;12.90;;;;;;;;;;4998071;28;20035;-78
2023/06/02 12:36:11;;;;;;;20.00;15.68;;;691.80;1971.20;;;;;;5004725;28;20050;-74
2023/06/02 12:38:38;;;;;;;21.20;14.77;;;;;;;;;;5000891;28;20058;-76
2023/06/02 12:41:10;;;;;;;18.48;9.02;;;666.20;2227.20;;;;;;5006016;28;20584;-76
2023/06/02 12:43:39;;;;;;;27.08;25.08;;;640.90;2432.00;;;;;;5008332;28;20431;-76
2023/06/02 12:46:06;;;;;;;32.33;30.13;;;;;;;;;;4999380;28;20045;-75
2023/06/02 12:48:32;;;;;;;10.90;9.68;;;;;;;;;;5008122;28;20034;-75
2023/06/02 12:50:58;;;;;;;11.45;6.38;;;;;;;;;;5009952;28;20030;-76
2023/06/02 12:53:24;;;;;;;11.60;6.80;;;;;;;;;;5006864;28;20022;-75
2023/06/02 12:55:50;;;;;;;9.95;6.18;;;;;;;;;;5010697;28;20168;-76
2023/06/02 12:58:17;;;;;;;10.00;5.60;;;;;;;;;;5013566;28;20049;-75